Time;durP1;ratioP1;P1;durP2;ratioP2;P2;SDS_P1;SDS_P2;PMS_P1;PMS_P2;Temp;Humidity;BMP_temperature;BMP_pressure;BME280_temperature;BME280_humidity;BME280_pressure;Samples;Min_cycle;Max_cycle;Signal;HPM_P1;HPM_P2
2023/09/01 00:00:59;;;;;;;4.40;2.30;;;;;;;;;;5071717;28;20044;-66
2023/09/01 00:03:25;;;;;;;3.83;2.28;;;;;;;;;;5071408;28;20041;-66
2023/09/01 00:05:51;;;;;;;3.95;2.88;;;;;;;;;;5071412;28;20494;-66
2023/09/01 00:08:17;;;;;;;3.88;3.00;;;;;;;;;;5063002;28;20055;-67
2023/09/01 00:10:43;;;;;;;4.97;2.65;;;;;;;;;;5074852;28;20410;-66
2023/09/01 00:13:09;;;;;;;4.28;2.75;;;;;;;;;;5075350;28;20127;-66
2023/09/01 00:15:35;;;;;;;3.47;2.50;;;;;;;;;;5075562;28;20045;-66
2023/09/01 00:18:01;;;;;;;4.03;2.10;;;;;;;;;;5068170;28;20074;-66
2023/09/01 00:20:27;;;;;;;2.67;2.30;;;;;;;;;;5073460;28;20123;-67
2023/09/01 00:22:53;;;;;;;3.80;2.53;;;;;;;;;;5075123;28;20115;-66
2023/09/01 00:25:19;;;;;;;4.70;2.60;;;;;;;;;;5075024;28;20036;-66
2023/09/01 00:27:45;;;;;;;3.17;2.42;;;;;;;;;;5070141;28;20045;-67
2023/09/01 00:30:11;;;;;;;3.33;2.50;;;;;;;;;;5071239;28;20116;-66
2023/09/01 00:32:37;;;;;;;4.43;2.70;;;;;;;;;;5075165;28;20049;-67
2023/09/01 00:35:04;;;;;;;4.72;2.70;;;;;;;;;;5074994;28;20047;-67
2023/09/01 00:37:30;;;;;;;4.72;3.10;;;;;;;;;;5072447;28;20044;-66
2023/09/01 00:39:56;;;;;;;4.00;2.88;;;;;;;;;;5068839;28;20041;-67
2023/09/01 00:42:22;;;;;;;4.68;3.00;;;;;;;;;;5075173;28;20449;-66
2023/09/01 00:44:48;;;;;;;4.28;3.88;;;;;;;;;;5074839;28;20044;-66
2023/09/01 00:47:14;;;;;;;3.97;3.30;;;;;;;;;;5117907;22;20054;-64
2023/09/01 00:49:41;;;;;;;6.78;3.45;;;;;;;;;;5097544;28;20040;-64
2023/09/01 00:52:07;;;;;;;3.95;3.20;;;;;;;;;;5110910;28;20043;-64
2023/09/01 00:54:33;;;;;;;8.63;3.53;;;;;;;;;;5115333;28;20039;-64
2023/09/01 00:57:00;;;;;;;4.38;2.83;;;;;;;;;;5112906;28;20082;-64
2023/09/01 00:59:26;;;;;;;4.13;2.78;;;;;;;;;;5103959;28;20040;-64
2023/09/01 01:01:52;;;;;;;8.55;2.88;;;;;;;;;;5093636;28;20036;-64
2023/09/01 01:04:20;;;;;;;4.43;2.65;;;;;;;;;;5093457;28;20043;-64
2023/09/01 01:06:50;;;;;;;4.18;2.60;;;;;;;;;;5095634;28;20557;-64
2023/09/01 01:09:22;;;;;;;2.70;2.40;;;;;;;;;;5106679;28;20182;-64
2023/09/01 01:11:48;;;;;;;4.30;2.50;;;;;;;;;;5101105;28;20043;-64
2023/09/01 01:14:16;;;;;;;4.40;2.92;;;;;;;;;;5110304;28;20412;-64
2023/09/01 01:16:43;;;;;;;3.55;2.90;;;;;;;;;;5114106;28;20036;-64
2023/09/01 01:19:15;;;;;;;5.72;3.13;;;;;;;;;;5105120;28;20051;-64
2023/09/01 01:21:43;;;;;;;4.20;3.30;;;;;;;;;;5099784;28;20036;-64
2023/09/01 01:24:09;;;;;;;6.15;3.90;;;;;;;;;;5110309;28;20035;-64
2023/09/01 01:26:36;;;;;;;5.20;3.40;;;;;;;;;;5113865;28;20050;-64
2023/09/01 01:29:02;;;;;;;6.25;3.42;;;;;;;;;;5105300;28;20492;-64
2023/09/01 01:31:28;;;;;;;5.38;3.38;;;;;;;;;;5095989;28;20409;-64
2023/09/01 01:34:05;;;;;;;5.38;3.20;;;;;;;;;;5094299;28;20032;-64
2023/09/01 01:36:34;;;;;;;4.65;3.50;;;;;;;;;;5094383;28;20054;-64
2023/09/01 01:39:05;;;;;;;5.03;3.80;;;;;;;;;;5104301;28;20523;-64
2023/09/01 01:41:42;;;;;;;7.85;4.45;;;;;;;;;;5095477;28;20040;-64
2023/09/01 01:44:10;;;;;;;6.50;4.35;;;;;;;;;;5093647;28;20032;-64
2023/09/01 01:46:36;;;;;;;7.15;3.80;;;;;;;;;;5093981;28;20040;-64
2023/09/01 01:49:08;;;;;;;7.75;4.85;;;;;;;;;;5103284;28;20103;-64
2023/09/01 01:51:34;;;;;;;7.15;4.25;;;;;;;;;;5093948;28;20481;-65
2023/09/01 01:54:00;;;;;;;5.60;4.10;;;;;;;;;;5093688;28;20051;-64
2023/09/01 01:56:26;;;;;;;5.40;4.32;;;;;;;;;;5093732;28;20201;-64
2023/09/01 01:58:52;;;;;;;6.72;4.50;;;;;;;;;;5101596;28;20035;-64
2023/09/01 02:01:18;;;;;;;6.82;4.28;;;;;;;;;;5104892;28;20689;-64
2023/09/01 02:03:44;;;;;;;5.28;4.78;;;;;;;;;;5101333;28;20035;-64
2023/09/01 02:06:10;;;;;;;8.27;4.88;;;;;;;;;;5093288;28;20036;-64
2023/09/01 02:08:37;;;;;;;8.45;4.82;;;;;;;;;;5099619;28;20042;-64
2023/09/01 02:11:04;;;;;;;8.07;4.63;;;;;;;;;;5098907;28;20075;-64
2023/09/01 02:13:30;;;;;;;7.55;4.70;;;;;;;;;;5102485;28;20040;-64
2023/09/01 02:15:56;;;;;;;6.57;4.22;;;;;;;;;;5112689;28;20075;-64
2023/09/01 02:18:23;;;;;;;7.32;4.15;;;;;;;;;;5104745;28;20044;-64
2023/09/01 02:20:49;;;;;;;6.25;4.43;;;;;;;;;;5100358;28;20264;-64
2023/09/01 02:23:16;;;;;;;7.95;4.20;;;;;;;;;;5093022;28;20036;-64
2023/09/01 02:25:42;;;;;;;7.60;4.30;;;;;;;;;;5093332;28;20044;-64
2023/09/01 02:28:08;;;;;;;4.97;3.80;;;;;;;;;;5096472;28;20055;-64
2023/09/01 02:30:34;;;;;;;4.13;3.50;;;;;;;;;;5101180;28;20047;-64
2023/09/01 02:33:00;;;;;;;3.85;2.90;;;;;;;;;;5103744;28;20504;-64
2023/09/01 02:35:27;;;;;;;3.42;2.95;;;;;;;;;;5113770;28;20051;-64
2023/09/01 02:37:53;;;;;;;4.82;3.03;;;;;;;;;;5106954;28;20039;-64
2023/09/01 02:40:22;;;;;;;5.85;3.05;;;;;;;;;;5099755;28;20567;-64
2023/09/01 02:42:48;;;;;;;4.30;3.15;;;;;;;;;;5092994;28;20047;-64
2023/09/01 02:45:14;;;;;;;5.82;3.50;;;;;;;;;;5092603;28;20040;-64
2023/09/01 02:47:40;;;;;;;4.43;3.38;;;;;;;;;;5095530;28;20412;-64
2023/09/01 02:50:07;;;;;;;4.82;3.25;;;;;;;;;;5100923;28;20040;-64
2023/09/01 02:52:33;;;;;;;4.18;3.22;;;;;;;;;;5092687;28;20370;-65
2023/09/01 02:55:00;;;;;;;4.93;3.20;;;;;;;;;;5092808;28;20051;-64
2023/09/01 02:57:26;;;;;;;3.92;3.22;;;;;;;;;;5095297;28;20042;-64
2023/09/01 02:59:53;;;;;;;4.60;3.28;;;;;;;;;;5108828;28;20070;-64
2023/09/01 03:02:19;;;;;;;5.00;3.50;;;;;;;;;;5112067;28;20043;-65
2023/09/01 03:04:45;;;;;;;5.18;3.38;;;;;;;;;;5110810;28;20044;-64
2023/09/01 03:07:11;;;;;;;5.10;3.33;;;;;;;;;;5112206;28;20138;-65
2023/09/01 03:09:37;;;;;;;7.32;3.10;;;;;;;;;;5101526;28;20461;-64
2023/09/01 03:12:03;;;;;;;4.53;3.67;;;;;;;;;;5092715;28;20048;-65
2023/09/01 03:14:30;;;;;;;6.80;4.38;;;;;;;;;;5110249;28;20564;-64
2023/09/01 03:16:56;;;;;;;5.75;3.83;;;;;;;;;;5111441;28;20073;-65
2023/09/01 03:19:22;;;;;;;6.78;4.05;;;;;;;;;;5101485;28;20088;-65
2023/09/01 03:21:48;;;;;;;4.22;3.60;;;;;;;;;;5092277;28;20398;-65
2023/09/01 03:24:14;;;;;;;5.50;4.20;;;;;;;;;;5092239;28;20048;-64
2023/09/01 03:26:40;;;;;;;5.63;4.00;;;;;;;;;;5091940;28;20039;-64
2023/09/01 03:29:06;;;;;;;5.60;4.03;;;;;;;;;;5106433;28;20130;-65
2023/09/01 03:31:32;;;;;;;4.80;4.10;;;;;;;;;;5093323;28;20253;-64
2023/09/01 03:33:59;;;;;;;5.50;4.07;;;;;;;;;;5090890;28;20040;-65
2023/09/01 03:36:25;;;;;;;7.85;4.40;;;;;;;;;;5091549;28;20161;-64
2023/09/01 03:38:54;;;;;;;5.95;4.30;;;;;;;;;;5098378;28;20508;-64
2023/09/01 03:41:20;;;;;;;8.93;4.32;;;;;;;;;;5094715;28;20039;-64
2023/09/01 03:43:46;;;;;;;5.22;4.30;;;;;;;;;;5090575;28;20438;-64
2023/09/01 03:46:12;;;;;;;7.00;4.90;;;;;;;;;;5091485;28;20036;-64
2023/09/01 03:48:38;;;;;;;7.88;5.07;;;;;;;;;;5096137;28;20031;-65
2023/09/01 03:51:12;;;;;;;6.38;4.93;;;;;;;;;;5095737;28;20058;-64
2023/09/01 03:53:38;;;;;;;7.72;4.60;;;;;;;;;;5091298;28;20072;-64
2023/09/01 03:56:13;;;;;;;5.85;4.32;;;;;;;;;;5091611;28;20547;-64
2023/09/01 03:58:40;;;;;;;5.80;4.57;;;;;;;;;;5096085;28;20050;-64
2023/09/01 04:01:08;;;;;;;8.60;4.28;;;;;;;;;;5102392;28;20388;-64
2023/09/01 04:03:37;;;;;;;7.63;4.45;;;;;;;;;;5111617;28;20050;-64
2023/09/01 04:06:05;;;;;;;5.78;4.07;;;;;;;;;;5101011;28;20100;-64
2023/09/01 04:08:31;;;;;;;6.28;3.95;;;;;;;;;;5102037;28;20447;-64
2023/09/01 04:10:57;;;;;;;5.00;4.25;;;;;;;;;;5097286;28;20089;-64
2023/09/01 04:13:23;;;;;;;5.55;4.18;;;;;;;;;;5099303;28;20055;-64
2023/09/01 04:15:51;;;;;;;5.55;3.90;;;;;;;;;;5111386;28;20401;-64
2023/09/01 04:18:17;;;;;;;5.65;3.72;;;;;;;;;;5101069;28;20105;-64
2023/09/01 04:20:49;;;;;;;5.38;3.83;;;;;;;;;;5099358;28;20103;-64
2023/09/01 04:23:15;;;;;;;4.95;3.88;;;;;;;;;;5091539;28;20082;-64
2023/09/01 04:25:43;;;;;;;5.10;3.90;;;;;;;;;;5091442;28;20580;-64
2023/09/01 04:28:10;;;;;;;5.63;3.92;;;;;;;;;;5095034;28;20081;-64
2023/09/01 04:30:36;;;;;;;4.85;3.75;;;;;;;;;;5100311;28;20050;-65
2023/09/01 04:33:04;;;;;;;5.13;3.47;;;;;;;;;;5091571;28;20074;-64
2023/09/01 04:35:30;;;;;;;3.92;2.80;;;;;;;;;;5097890;28;20042;-64
2023/09/01 04:37:56;;;;;;;3.35;2.83;;;;;;;;;;5108163;28;20032;-65
2023/09/01 04:40:22;;;;;;;4.38;2.92;;;;;;;;;;5105099;28;20134;-64
2023/09/01 04:42:48;;;;;;;3.92;2.72;;;;;;;;;;5099933;28;20537;-64
2023/09/01 04:45:14;;;;;;;4.07;2.70;;;;;;;;;;5102785;28;20127;-64
2023/09/01 04:47:40;;;;;;;5.40;3.55;;;;;;;;;;5106117;28;20040;-64
2023/09/01 04:50:06;;;;;;;3.95;3.13;;;;;;;;;;5098095;28;20556;-64
2023/09/01 04:52:32;;;;;;;3.08;2.78;;;;;;;;;;5092563;28;20044;-64
2023/09/01 04:54:58;;;;;;;6.40;3.92;;;;;;;;;;5091527;28;20047;-64
2023/09/01 04:57:24;;;;;;;4.28;2.92;;;;;;;;;;5097807;28;20043;-64
2023/09/01 04:59:50;;;;;;;5.35;3.45;;;;;;;;;;5100793;28;20125;-64
2023/09/01 05:02:17;;;;;;;4.13;3.72;;;;;;;;;;5093841;28;20040;-64
2023/09/01 05:04:43;;;;;;;7.07;4.35;;;;;;;;;;5094618;28;20036;-64
2023/09/01 05:07:09;;;;;;;5.85;4.38;;;;;;;;;;5096056;28;20044;-64
2023/09/01 05:09:35;;;;;;;6.18;3.80;;;;;;;;;;5103194;28;20439;-64
2023/09/01 05:12:01;;;;;;;2.85;2.35;;;;;;;;;;5094458;28;20043;-64
2023/09/01 05:14:27;;;;;;;3.55;2.72;;;;;;;;;;5112504;28;20624;-64
2023/09/01 05:16:54;;;;;;;5.32;3.20;;;;;;;;;;5108581;28;20043;-64
2023/09/01 05:19:20;;;;;;;4.82;3.22;;;;;;;;;;5099978;28;20048;-64
2023/09/01 05:21:46;;;;;;;5.95;3.30;;;;;;;;;;5101783;28;20130;-64
2023/09/01 05:24:12;;;;;;;6.25;3.85;;;;;;;;;;5094018;28;20040;-64
2023/09/01 05:26:38;;;;;;;6.43;4.00;;;;;;;;;;5095293;28;20039;-64
2023/09/01 05:29:04;;;;;;;6.15;4.55;;;;;;;;;;5101462;28;20463;-64
2023/09/01 05:31:30;;;;;;;5.63;4.00;;;;;;;;;;5114562;28;20046;-64
2023/09/01 05:33:56;;;;;;;6.53;4.80;;;;;;;;;;5114692;28;20180;-64
2023/09/01 05:36:22;;;;;;;7.13;5.20;;;;;;;;;;5112355;28;20500;-64
2023/09/01 05:38:48;;;;;;;7.88;4.68;;;;;;;;;;5102375;28;20035;-64
2023/09/01 05:41:14;;;;;;;9.50;5.53;;;;;;;;;;5096945;28;20223;-64
2023/09/01 05:43:40;;;;;;;8.50;4.85;;;;;;;;;;5094241;28;20488;-64
2023/09/01 05:46:06;;;;;;;4.68;3.67;;;;;;;;;;5093706;28;20484;-64
2023/09/01 05:48:34;;;;;;;5.00;2.95;;;;;;;;;;5103165;28;20078;-64
2023/09/01 05:51:00;;;;;;;4.65;3.60;;;;;;;;;;5094184;28;20047;-64
2023/09/01 05:53:27;;;;;;;6.43;3.45;;;;;;;;;;5093792;28;20051;-64
2023/09/01 05:55:53;;;;;;;4.47;3.40;;;;;;;;;;5093809;28;20036;-64
2023/09/01 05:58:19;;;;;;;7.28;4.30;;;;;;;;;;5101315;28;20040;-64
2023/09/01 06:00:45;;;;;;;5.65;3.95;;;;;;;;;;5101262;28;20039;-64
2023/09/01 06:03:11;;;;;;;5.72;4.53;;;;;;;;;;5105443;28;20056;-64
2023/09/01 06:05:37;;;;;;;8.77;6.03;;;;;;;;;;5092894;28;20103;-64
2023/09/01 06:08:06;;;;;;;8.60;5.80;;;;;;;;;;5100585;28;20047;-64
2023/09/01 06:10:32;;;;;;;8.68;5.78;;;;;;;;;;5094671;28;20040;-64
2023/09/01 06:12:58;;;;;;;8.00;5.47;;;;;;;;;;5098251;28;20032;-64
2023/09/01 06:15:24;;;;;;;11.55;6.93;;;;;;;;;;5112700;28;20046;-64
2023/09/01 06:17:50;;;;;;;14.27;7.82;;;;;;;;;;5104929;28;20050;-64
2023/09/01 06:20:16;;;;;;;13.38;7.80;;;;;;;;;;5113754;28;20381;-64
2023/09/01 06:22:42;;;;;;;16.17;9.65;;;;;;;;;;5113509;28;20069;-64
2023/09/01 06:25:08;;;;;;;13.50;10.15;;;;;;;;;;5113581;28;20043;-64
2023/09/01 06:27:37;;;;;;;17.77;11.02;;;;;;;;;;5113824;28;20389;-64
2023/09/01 06:30:04;;;;;;;17.85;10.02;;;;;;;;;;5113804;28;20048;-64
2023/09/01 06:32:30;;;;;;;15.80;11.07;;;;;;;;;;5113530;28;20082;-64
2023/09/01 06:34:56;;;;;;;17.38;10.52;;;;;;;;;;5113389;28;20040;-64
2023/09/01 06:37:22;;;;;;;16.83;11.93;;;;;;;;;;5113209;28;20046;-64
2023/09/01 06:39:48;;;;;;;16.55;11.27;;;;;;;;;;5111921;28;20404;-64
2023/09/01 06:42:14;;;;;;;20.30;13.27;;;;;;;;;;5112324;28;20100;-64
2023/09/01 06:44:40;;;;;;;20.05;12.63;;;;;;;;;;5113043;28;20480;-64
2023/09/01 06:47:06;;;;;;;19.98;12.45;;;;;;;;;;5103194;22;20168;-66
2023/09/01 06:49:32;;;;;;;21.58;13.43;;;;;;;;;;5063881;28;20125;-67
2023/09/01 06:51:58;;;;;;;21.30;12.73;;;;;;;;;;5071994;28;20048;-66
2023/09/01 06:54:24;;;;;;;20.92;13.20;;;;;;;;;;5072417;28;20161;-66
2023/09/01 06:56:50;;;;;;;22.75;13.82;;;;;;;;;;5071747;28;20076;-66
2023/09/01 06:59:16;;;;;;;24.88;15.13;;;;;;;;;;5072686;28;20091;-67
2023/09/01 07:01:42;;;;;;;20.90;14.50;;;;;;;;;;5072369;28;20501;-66
2023/09/01 07:04:08;;;;;;;21.98;14.95;;;;;;;;;;5071609;28;20051;-66
2023/09/01 07:06:34;;;;;;;20.52;14.70;;;;;;;;;;5070337;28;20406;-66
2023/09/01 07:09:00;;;;;;;21.38;14.63;;;;;;;;;;5071771;28;20036;-66
2023/09/01 07:11:26;;;;;;;23.05;15.20;;;;;;;;;;5072382;28;20040;-66
2023/09/01 07:13:52;;;;;;;22.88;14.80;;;;;;;;;;5072203;28;20115;-67
2023/09/01 07:16:18;;;;;;;23.77;15.45;;;;;;;;;;5071348;28;20505;-66
2023/09/01 07:18:46;;;;;;;24.23;15.63;;;;;;;;;;5075801;28;20123;-67
2023/09/01 07:21:12;;;;;;;25.92;15.02;;;;;;;;;;5066714;28;20098;-66
2023/09/01 07:23:38;;;;;;;23.35;14.32;;;;;;;;;;5068990;28;20027;-66
2023/09/01 07:26:04;;;;;;;25.50;15.75;;;;;;;;;;5073517;28;20044;-66
2023/09/01 07:28:30;;;;;;;25.38;15.63;;;;;;;;;;5075053;28;20207;-67
2023/09/01 07:30:56;;;;;;;22.95;14.90;;;;;;;;;;5071527;28;20468;-67
2023/09/01 07:33:22;;;;;;;22.55;14.40;;;;;;;;;;5071350;28;20036;-67
2023/09/01 07:35:49;;;;;;;25.63;15.68;;;;;;;;;;5071693;28;20072;-66
2023/09/01 07:38:16;;;;;;;23.50;15.82;;;;;;;;;;5070808;28;20044;-67
2023/09/01 07:40:42;;;;;;;21.88;15.52;;;;;;;;;;5072074;28;20033;-67
2023/09/01 07:43:08;;;;;;;28.00;16.52;;;;;;;;;;5071672;28;20048;-66
2023/09/01 07:45:34;;;;;;;24.27;15.45;;;;;;;;;;5071384;28;20053;-66
2023/09/01 07:48:00;;;;;;;23.10;14.90;;;;;;;;;;5071227;28;20040;-66
2023/09/01 07:50:30;;;;;;;25.20;15.73;;;;;;;;;;5071635;28;20496;-67
2023/09/01 07:52:56;;;;;;;29.85;16.75;;;;;;;;;;5071628;28;20048;-66
2023/09/01 07:55:22;;;;;;;25.23;16.52;;;;;;;;;;5071726;28;20040;-66
2023/09/01 07:57:48;;;;;;;25.70;16.15;;;;;;;;;;5074422;28;22245;-67
2023/09/01 08:00:14;;;;;;;25.63;16.80;;;;;;;;;;5075010;28;20067;-66
2023/09/01 08:02:41;;;;;;;27.55;17.13;;;;;;;;;;5076352;28;20036;-66
2023/09/01 08:05:07;;;;;;;26.75;15.75;;;;;;;;;;5070716;28;20041;-66
2023/09/01 08:07:33;;;;;;;26.23;16.58;;;;;;;;;;5078144;28;20036;-66
2023/09/01 08:10:00;;;;;;;29.10;18.10;;;;;;;;;;5074666;28;20188;-66
2023/09/01 08:12:26;;;;;;;26.48;15.95;;;;;;;;;;5073509;28;20047;-66
2023/09/01 08:14:52;;;;;;;28.88;17.52;;;;;;;;;;5075076;28;20090;-66
2023/09/01 08:17:18;;;;;;;25.63;16.35;;;;;;;;;;5070902;28;20078;-66
2023/09/01 08:19:50;;;;;;;23.70;16.83;;;;;;;;;;5068827;28;20045;-66
2023/09/01 08:22:17;;;;;;;27.77;17.10;;;;;;;;;;5076430;28;20042;-66
2023/09/01 08:24:44;;;;;;;27.42;17.00;;;;;;;;;;5072612;28;20485;-67
2023/09/01 08:27:10;;;;;;;29.63;17.10;;;;;;;;;;5076115;28;20041;-66
2023/09/01 08:29:37;;;;;;;27.00;17.38;;;;;;;;;;5073504;28;20045;-66
2023/09/01 08:32:03;;;;;;;29.35;16.98;;;;;;;;;;5082391;28;20110;-67
2023/09/01 08:34:29;;;;;;;26.88;16.77;;;;;;;;;;5074776;28;20514;-66
2023/09/01 08:36:55;;;;;;;24.55;16.65;;;;;;;;;;5075167;28;20052;-66
2023/09/01 08:39:21;;;;;;;27.02;17.45;;;;;;;;;;5074990;28;20037;-65
2023/09/01 08:41:48;;;;;;;24.00;16.25;;;;;;;;;;5075304;28;20036;-66
2023/09/01 08:44:15;;;;;;;24.83;15.82;;;;;;;;;;5074776;28;20045;-66
2023/09/01 08:46:41;;;;;;;25.48;16.55;;;;;;;;;;5074547;28;20045;-66
2023/09/01 08:49:08;;;;;;;23.65;16.52;;;;;;;;;;5075176;28;20040;-67
2023/09/01 08:51:34;;;;;;;27.25;16.83;;;;;;;;;;5075105;28;20072;-66
2023/09/01 08:54:00;;;;;;;22.15;15.43;;;;;;;;;;5074646;28;20518;-66
2023/09/01 08:56:26;;;;;;;28.33;17.08;;;;;;;;;;5080739;28;20075;-65
2023/09/01 08:58:53;;;;;;;23.13;16.35;;;;;;;;;;5077153;28;20036;-66
2023/09/01 09:01:18;;;;;;;22.17;15.50;;;;;;;;;;5078623;28;20047;-66
2023/09/01 09:03:44;;;;;;;23.23;15.85;;;;;;;;;;5074319;28;20036;-67
2023/09/01 09:06:14;;;;;;;24.42;15.70;;;;;;;;;;5079442;28;20121;-66
2023/09/01 09:08:40;;;;;;;27.17;16.02;;;;;;;;;;5075669;28;20544;-66
2023/09/01 09:11:13;;;;;;;24.08;15.60;;;;;;;;;;5073951;28;20044;-66
2023/09/01 09:13:40;;;;;;;31.05;15.88;;;;;;;;;;5073957;28;20497;-66
2023/09/01 09:16:12;;;;;;;23.02;14.93;;;;;;;;;;5077402;28;20102;-66
2023/09/01 09:18:40;;;;;;;25.38;15.38;;;;;;;;;;5074220;28;20051;-66
2023/09/01 09:21:22;;;;;;;23.95;14.63;;;;;;;;;;5077785;28;20033;-66
2023/09/01 09:23:48;;;;;;;24.90;13.32;;;;;;;;;;5073092;28;20701;-66
2023/09/01 09:26:14;;;;;;;25.23;13.88;;;;;;;;;;5079500;28;20044;-66
2023/09/01 09:28:40;;;;;;;27.27;13.77;;;;;;;;;;5073480;28;20060;-65
2023/09/01 09:31:06;;;;;;;25.58;13.82;;;;;;;;;;5057702;28;20123;-65
2023/09/01 09:33:33;;;;;;;22.38;12.98;;;;;;;;;;5070881;28;20485;-64
2023/09/01 09:36:00;;;;;;;24.88;13.98;;;;;;;;;;5069605;28;20171;-65
2023/09/01 09:38:58;;;;;;;23.38;13.38;;;;;;;;;;5079614;28;20071;-65
2023/09/01 09:41:24;;;;;;;23.15;13.13;;;;;;;;;;5047526;28;20050;-65
2023/09/01 09:43:51;;;;;;;20.23;12.90;;;;;;;;;;5072858;28;20041;-65
2023/09/01 09:46:19;;;;;;;22.48;12.43;;;;;;;;;;5070121;28;20041;-65
2023/09/01 09:48:45;;;;;;;20.05;12.80;;;;;;;;;;5073149;28;20040;-65
2023/09/01 09:51:15;;;;;;;19.08;11.35;;;;;;;;;;5073432;28;20040;-65
2023/09/01 09:53:42;;;;;;;21.15;10.70;;;;;;;;;;5071198;28;20397;-65
2023/09/01 09:56:32;;;;;;;17.48;9.90;;;;;;;;;;5080782;28;20045;-65
2023/09/01 09:59:04;;;;;;;19.17;11.05;;;;;;;;;;5054692;28;20060;-65
2023/09/01 10:01:31;;;;;;;24.10;12.23;;;;;;;;;;5078074;28;20089;-63
2023/09/01 10:03:58;;;;;;;21.05;11.60;;;;;;;;;;5076873;28;20209;-65
2023/09/01 10:06:24;;;;;;;21.58;11.25;;;;;;;;;;5076307;28;20134;-64
2023/09/01 10:08:52;;;;;;;21.35;10.70;;;;;;;;;;5076821;28;20060;-64
2023/09/01 10:11:18;;;;;;;19.48;10.23;;;;;;;;;;5075977;28;20125;-65
2023/09/01 10:13:45;;;;;;;17.67;8.45;;;;;;;;;;5074542;28;20406;-65
2023/09/01 10:16:12;;;;;;;16.75;7.90;;;;;;;;;;5074608;28;20044;-65
2023/09/01 10:18:38;;;;;;;15.55;8.23;;;;;;;;;;5074944;28;20512;-64
2023/09/01 10:21:05;;;;;;;16.35;8.73;;;;;;;;;;5073179;28;20033;-64
2023/09/01 10:23:33;;;;;;;21.10;9.00;;;;;;;;;;5081298;28;20151;-64
2023/09/01 10:26:24;;;;;;;17.08;8.63;;;;;;;;;;5072623;28;20043;-64
2023/09/01 10:28:50;;;;;;;;;;;;;;;;;;5070191;28;20566;-64
2023/09/01 10:31:20;;;;;;;16.50;8.63;;;;;;;;;;5070324;28;20003;-65
2023/09/01 10:33:46;;;;;;;15.30;8.50;;;;;;;;;;5072531;28;20486;-65
2023/09/01 10:36:17;;;;;;;12.82;7.95;;;;;;;;;;5071818;28;20076;-64
2023/09/01 10:38:43;;;;;;;14.68;8.23;;;;;;;;;;5072805;28;20071;-65
2023/09/01 10:41:09;;;;;;;18.17;9.00;;;;;;;;;;5071695;28;20036;-65
2023/09/01 10:43:35;;;;;;;15.02;8.30;;;;;;;;;;5072345;28;20094;-64
2023/09/01 10:46:16;;;;;;;14.40;9.63;;;;;;;;;;5072250;28;20037;-64
2023/09/01 10:48:52;;;;;;;15.23;8.95;;;;;;;;;;5072814;28;20040;-64
2023/09/01 10:51:19;;;;;;;18.05;8.85;;;;;;;;;;5074837;28;20045;-64
2023/09/01 10:53:48;;;;;;;17.00;8.98;;;;;;;;;;5071948;28;20044;-64
2023/09/01 10:56:15;;;;;;;19.65;9.38;;;;;;;;;;5070005;28;20084;-64
2023/09/01 10:58:44;;;;;;;14.43;9.10;;;;;;;;;;5072750;28;20049;-64
2023/09/01 11:01:33;;;;;;;14.05;8.90;;;;;;;;;;5072550;28;20094;-65
2023/09/01 11:04:14;;;;;;;15.68;8.63;;;;;;;;;;5062820;28;20044;-64
2023/09/01 11:06:40;;;;;;;;;;;;;;;;;;5072643;28;20489;-63
2023/09/01 11:09:07;;;;;;;15.52;8.88;;;;;;;;;;5072629;28;19916;-64
2023/09/01 11:11:33;;;;;;;17.33;9.18;;;;;;;;;;5071027;28;20055;-63
2023/09/01 11:14:02;;;;;;;18.10;9.68;;;;;;;;;;5074261;28;20028;-64
2023/09/01 11:16:28;;;;;;;14.82;9.90;;;;;;;;;;5071605;28;20497;-65
2023/09/01 11:19:01;;;;;;;15.23;9.35;;;;;;;;;;5071929;28;20082;-65
2023/09/01 11:21:27;;;;;;;18.42;9.65;;;;;;;;;;5072162;28;20115;-64
2023/09/01 11:24:00;;;;;;;17.05;9.35;;;;;;;;;;5071539;28;20037;-64
2023/09/01 11:26:26;;;;;;;15.63;9.32;;;;;;;;;;5071608;28;20036;-64
2023/09/01 11:28:52;;;;;;;17.02;9.27;;;;;;;;;;5072109;28;20037;-64
2023/09/01 11:31:18;;;;;;;17.52;8.98;;;;;;;;;;5071382;28;20501;-64
2023/09/01 11:33:55;;;;;;;15.50;9.20;;;;;;;;;;5070717;28;20051;-64
2023/09/01 11:36:21;;;;;;;16.27;8.48;;;;;;;;;;5071556;28;20036;-64
2023/09/01 11:38:47;;;;;;;19.38;8.73;;;;;;;;;;5070063;28;20120;-64
2023/09/01 11:41:14;;;;;;;19.42;9.82;;;;;;;;;;5071841;28;20390;-64
2023/09/01 11:43:41;;;;;;;15.30;8.98;;;;;;;;;;5071497;28;20032;-64
2023/09/01 11:46:07;;;;;;;15.40;9.48;;;;;;;;;;5070858;28;20543;-64
2023/09/01 11:48:33;;;;;;;14.05;8.98;;;;;;;;;;5071653;28;20044;-64
2023/09/01 11:50:59;;;;;;;17.85;9.18;;;;;;;;;;5071938;28;20101;-64
2023/09/01 11:53:29;;;;;;;13.95;8.15;;;;;;;;;;5070322;28;20037;-64
2023/09/01 11:56:01;;;;;;;16.98;8.32;;;;;;;;;;5071681;28;20043;-64
2023/09/01 11:58:32;;;;;;;15.65;7.88;;;;;;;;;;5070993;28;20041;-65
2023/09/01 12:01:11;;;;;;;13.93;7.15;;;;;;;;;;5071595;28;20066;-64
2023/09/01 12:03:37;;;;;;;13.70;6.78;;;;;;;;;;5071253;28;20390;-64
2023/09/01 12:06:23;;;;;;;12.38;6.15;;;;;;;;;;5076222;28;20036;-64
2023/09/01 12:08:50;;;;;;;14.48;7.05;;;;;;;;;;5076196;28;20085;-64
2023/09/01 12:11:17;;;;;;;11.02;6.10;;;;;;;;;;5078389;28;20044;-64
2023/09/01 12:13:46;;;;;;;10.98;6.38;;;;;;;;;;5077762;28;20044;-65
2023/09/01 12:16:20;;;;;;;15.35;6.35;;;;;;;;;;5076636;28;20394;-64
2023/09/01 12:18:46;;;;;;;15.70;6.60;;;;;;;;;;5081039;28;20111;-64
2023/09/01 12:21:12;;;;;;;12.35;6.78;;;;;;;;;;5077542;28;20108;-64
2023/09/01 12:23:39;;;;;;;14.95;6.53;;;;;;;;;;5077878;28;20048;-64
2023/09/01 12:26:05;;;;;;;11.80;6.68;;;;;;;;;;5077934;28;20039;-64
2023/09/01 12:28:32;;;;;;;12.73;7.22;;;;;;;;;;5078059;28;20036;-64
2023/09/01 12:30:59;;;;;;;13.85;7.75;;;;;;;;;;5078120;28;20389;-64
2023/09/01 12:33:25;;;;;;;16.67;7.72;;;;;;;;;;5077922;28;20401;-64
2023/09/01 12:35:52;;;;;;;12.23;7.07;;;;;;;;;;5077635;28;20513;-63
2023/09/01 12:38:18;;;;;;;15.30;8.20;;;;;;;;;;5078052;28;20125;-63
2023/09/01 12:40:44;;;;;;;12.10;7.22;;;;;;;;;;5078118;28;20040;-64
2023/09/01 12:43:10;;;;;;;13.48;7.00;;;;;;;;;;5077653;28;20036;-64
2023/09/01 12:45:36;;;;;;;12.65;7.00;;;;;;;;;;5076571;28;20042;-64
2023/09/01 12:48:03;;;;;;;12.68;6.80;;;;;;;;;;5089415;22;20440;-61
2023/09/01 12:50:29;;;;;;;13.38;7.82;;;;;;;;;;5071624;28;20043;-61
2023/09/01 12:52:56;;;;;;;13.65;6.78;;;;;;;;;;5074007;28;20068;-61
2023/09/01 12:55:22;;;;;;;14.13;7.20;;;;;;;;;;5076064;28;20438;-62
2023/09/01 12:57:48;;;;;;;13.57;7.53;;;;;;;;;;5062210;28;20037;-62
2023/09/01 13:00:15;;;;;;;15.23;7.57;;;;;;;;;;5057107;28;20081;-61
2023/09/01 13:02:41;;;;;;;10.60;6.32;;;;;;;;;;5045242;28;20115;-62
2023/09/01 13:05:07;;;;;;;15.07;6.65;;;;;;;;;;5050376;28;20119;-62
2023/09/01 13:07:33;;;;;;;12.90;6.90;;;;;;;;;;5051377;28;20041;-62
2023/09/01 13:09:59;;;;;;;15.23;7.07;;;;;;;;;;5057212;28;20044;-61
2023/09/01 13:12:25;;;;;;;12.50;7.55;;;;;;;;;;5055998;28;20068;-61
2023/09/01 13:14:51;;;;;;;15.40;7.15;;;;;;;;;;5055832;28;20048;-61
2023/09/01 13:17:17;;;;;;;10.00;6.95;;;;;;;;;;5054275;28;20048;-62
2023/09/01 13:19:44;;;;;;;14.40;7.45;;;;;;;;;;5040915;28;20042;-62
2023/09/01 13:22:10;;;;;;;10.80;6.57;;;;;;;;;;5046195;28;20403;-62
2023/09/01 13:24:36;;;;;;;12.02;6.68;;;;;;;;;;5053754;28;20037;-62
2023/09/01 13:27:01;;;;;;;13.02;6.75;;;;;;;;;;5053102;28;20052;-62
2023/09/01 13:29:27;;;;;;;10.68;6.63;;;;;;;;;;5052474;28;20083;-62
2023/09/01 13:31:53;;;;;;;10.05;5.82;;;;;;;;;;5048840;28;20384;-62
2023/09/01 13:34:19;;;;;;;12.23;6.32;;;;;;;;;;5037576;28;20036;-62
2023/09/01 13:36:45;;;;;;;12.75;6.80;;;;;;;;;;5053725;28;20033;-62
2023/09/01 13:39:11;;;;;;;12.95;6.28;;;;;;;;;;5054129;28;20557;-62
2023/09/01 13:41:37;;;;;;;10.20;5.45;;;;;;;;;;5054253;28;20282;-62
2023/09/01 13:44:03;;;;;;;9.38;5.35;;;;;;;;;;5054052;28;20033;-62
2023/09/01 13:46:31;;;;;;;9.77;5.05;;;;;;;;;;5053727;28;20040;-61
2023/09/01 13:48:58;;;;;;;8.55;4.30;;;;;;;;;;5052735;28;20056;-62
2023/09/01 13:51:28;;;;;;;10.27;5.40;;;;;;;;;;5050444;28;20133;-62
2023/09/01 13:53:55;;;;;;;8.27;5.10;;;;;;;;;;5033416;28;20042;-61
2023/09/01 13:56:21;;;;;;;10.32;5.13;;;;;;;;;;5033566;28;20284;-61
2023/09/01 13:58:48;;;;;;;10.25;5.80;;;;;;;;;;5033751;28;20045;-62
2023/09/01 14:01:14;;;;;;;10.93;5.28;;;;;;;;;;5032147;28;20391;-61
2023/09/01 14:03:40;;;;;;;11.70;5.68;;;;;;;;;;5041640;28;20033;-61
2023/09/01 14:06:07;;;;;;;10.15;5.80;;;;;;;;;;5051955;28;20049;-62
2023/09/01 14:08:33;;;;;;;9.70;5.38;;;;;;;;;;5057699;28;20036;-62
2023/09/01 14:10:59;;;;;;;8.07;5.70;;;;;;;;;;5072219;28;20506;-62
2023/09/01 14:13:26;;;;;;;10.80;6.03;;;;;;;;;;5072289;28;20056;-62
2023/09/01 14:15:56;;;;;;;12.55;5.78;;;;;;;;;;5073322;28;20120;-61
2023/09/01 14:18:23;;;;;;;10.87;6.17;;;;;;;;;;5057621;28;20490;-62
2023/09/01 14:20:52;;;;;;;11.73;5.93;;;;;;;;;;5053498;28;20636;-61
2023/09/01 14:23:28;;;;;;;12.50;5.70;;;;;;;;;;5053101;28;20041;-61
2023/09/01 14:25:54;;;;;;;9.38;5.50;;;;;;;;;;5053367;28;20505;-61
2023/09/01 14:28:21;;;;;;;8.27;5.03;;;;;;;;;;5052338;28;20136;-61
2023/09/01 14:30:47;;;;;;;9.07;5.10;;;;;;;;;;5053422;28;20041;-62
2023/09/01 14:33:13;;;;;;;10.27;5.40;;;;;;;;;;5050855;28;20075;-62